Terminal Aerodrome Forecast
Issued by NWS

Home | Current Version | Previous Version | Text Only | Print | Product List | Glossary On
Versions: 1 2 3 4 5 6 7 8 9 10 11 12 13 14 15 16 17 18 19 20
377
FTUS46 KLOX 281304 AAA
TAFVNY
TAF AMD
KVNY 281304Z 2813/0112 35012G18KT P6SM SKC
     FM282200 19008KT P6SM FEW060
     FM010200 35007KT P6SM SKC=

USA.gov is the U.S. government's official web portal to all federal, state and local government web resources and services.